SBOSBO AYT / LTAI
Speedbird OnlineSpeedbird Online AYT / LTAI

Antalya International Airport
17:39 12°C

Location Antalya, Turkey
Latitude: 36.898701
Longitude: 30.800501
Web Airport Website | Wikipedia
Altitude 54 Meter / 177 Feet
Distance 2,902 KM / 1,803 Miles
from London.
Time Zone UTC +3 hours (Europe/Istanbul)
Codes IATA: AYT
ICAO: LTAI
Currency £1 equals TRY 23.18
Runways
RunwayLength (m)Surface
18C3400concrete
18L3400Concrete
18R2990concrete
36C3400concrete
36L2990concrete
36R3400Concrete
Radio
TypeDescriptionFrequency
APPupper122.05
ATISATIS118.275
Approacharrival119.65
CLDCLNC DEL123.175
GNDGND121.9
HAVASHandling Services131.45
TWRTWR east125
TWRTWR west126.1
Live ATC
METAR LTAI 311420Z 01014KT 9999 FEW030 SCT200 12/M05 Q1006 NOSIG RMK RWY18C 36012KT RWY36R 36011KT RWY18L 36008KT
TAF TAF LTAI 311040Z 3112/0112 34018G28KT 9999 FEW030 BECMG 3113/3116 34012KT BECMG 0103/0107 34015G25KT
Weather As Of 31 Jan 2023 17:39
Description Scattered clouds
Wind 26 km/h from North (10°)
Cloud Cover 40%
Precipitation Rain: none, Snow: none
Sunrise 08:00
Sunset 18:19
Lounges CIP Lounge, T1 International Terminal, 3 floo



Support Speedbird Online

© 2017-2023 Speedbird Online